createdAt,value
2023-04-16T00:02:07.176Z,6.63
2023-04-16T00:04:34.589Z,8.90
2023-04-16T00:07:01.989Z,9.23
2023-04-16T00:09:29.371Z,11.00
2023-04-16T00:11:56.619Z,10.15
2023-04-16T00:14:24.066Z,9.75
2023-04-16T00:16:51.351Z,7.97
2023-04-16T00:19:18.786Z,10.57
2023-04-16T00:21:45.947Z,8.63
2023-04-16T00:24:13.132Z,11.93
2023-04-16T00:26:41.151Z,8.23
2023-04-16T00:29:08.737Z,11.65
2023-04-16T00:31:36.390Z,8.85
2023-04-16T00:34:03.943Z,10.17
2023-04-16T00:36:30.915Z,9.10
2023-04-16T00:38:58.377Z,10.10
2023-04-16T00:41:26.805Z,9.98
2023-04-16T00:43:54.170Z,9.07
2023-04-16T00:46:23.296Z,11.73
2023-04-16T00:48:52.650Z,11.77
2023-04-16T00:51:21.589Z,10.20
2023-04-16T00:53:48.626Z,9.90
2023-04-16T00:56:17.472Z,8.82
2023-04-16T00:58:45.209Z,10.77
2023-04-16T01:01:14.507Z,11.43
2023-04-16T01:03:46.027Z,19.35
2023-04-16T01:06:13.584Z,9.90
2023-04-16T01:08:40.825Z,14.90
2023-04-16T01:11:08.240Z,6.80
2023-04-16T01:13:39.302Z,8.25
2023-04-16T01:16:08.380Z,9.32
2023-04-16T01:18:36.689Z,11.27
2023-04-16T01:21:04.611Z,7.85
2023-04-16T01:23:32.663Z,8.17
2023-04-16T01:25:59.987Z,8.38
2023-04-16T01:28:27.320Z,8.90
2023-04-16T01:30:54.832Z,10.07
2023-04-16T01:33:51.475Z,7.65
2023-04-16T01:36:18.919Z,7.90
2023-04-16T01:38:46.452Z,10.88
2023-04-16T01:41:13.701Z,9.18
2023-04-16T01:43:42.547Z,10.20
2023-04-16T01:46:20.459Z,8.15
2023-04-16T01:48:48.373Z,12.03
2023-04-16T01:51:15.689Z,6.68
2023-04-16T01:53:42.936Z,7.80
2023-04-16T01:56:10.166Z,12.85
2023-04-16T01:58:37.028Z,13.38
2023-04-16T02:01:05.703Z,11.30
2023-04-16T02:03:33.329Z,12.85
2023-04-16T02:06:01.278Z,12.20
2023-04-16T02:08:29.408Z,10.98
2023-04-16T02:10:57.004Z,12.25
2023-04-16T02:13:26.131Z,12.93
2023-04-16T02:15:53.196Z,11.15
2023-04-16T02:18:29.740Z,9.52
2023-04-16T02:20:58.729Z,13.13
2023-04-16T02:23:26.063Z,12.10
2023-04-16T02:25:53.713Z,12.40
2023-04-16T02:28:21.197Z,13.23
2023-04-16T02:30:48.137Z,13.30
2023-04-16T02:33:17.761Z,11.88
2023-04-16T02:35:57.397Z,11.82
2023-04-16T02:38:24.972Z,10.57
2023-04-16T02:40:52.209Z,15.88
2023-04-16T02:43:19.728Z,15.82
2023-04-16T02:45:47.037Z,11.65
2023-04-16T02:48:14.309Z,13.35
2023-04-16T02:50:41.670Z,14.93
2023-04-16T02:53:10.484Z,14.00
2023-04-16T02:55:37.370Z,15.90
2023-04-16T02:58:04.621Z,15.93
2023-04-16T03:00:31.899Z,12.18
2023-04-16T03:02:59.676Z,16.70
2023-04-16T03:05:26.659Z,16.75
2023-04-16T03:07:56.710Z,20.08
2023-04-16T03:10:24.228Z,13.40
2023-04-16T03:12:51.498Z,18.80
2023-04-16T03:15:19.001Z,11.57
2023-04-16T03:17:46.234Z,12.40
2023-04-16T03:20:14.557Z,12.32
2023-04-16T03:22:41.641Z,20.00
2023-04-16T03:25:09.144Z,13.82
2023-04-16T03:27:36.742Z,13.83
2023-04-16T03:30:04.769Z,21.30
2023-04-16T03:32:34.140Z,16.63
2023-04-16T03:35:02.232Z,15.65
2023-04-16T03:37:29.582Z,17.50
2023-04-16T03:39:56.645Z,16.93
2023-04-16T03:42:23.859Z,12.77
2023-04-16T03:44:52.714Z,10.98
2023-04-16T03:47:21.730Z,16.40
2023-04-16T03:49:49.971Z,15.32
2023-04-16T03:52:18.547Z,13.30
2023-04-16T03:54:45.868Z,16.55
2023-04-16T03:57:26.346Z,15.77
2023-04-16T03:59:57.388Z,14.18
2023-04-16T04:02:27.316Z,14.27
2023-04-16T04:04:54.888Z,13.47
2023-04-16T04:07:21.786Z,12.10
2023-04-16T04:09:49.220Z,11.88
2023-04-16T04:12:16.498Z,12.30
2023-04-16T04:14:45.646Z,16.55
2023-04-16T04:17:12.505Z,14.40
2023-04-16T04:19:44.520Z,14.57
2023-04-16T04:22:18.749Z,15.13
2023-04-16T04:24:45.998Z,17.70
2023-04-16T04:27:13.217Z,17.90
2023-04-16T04:29:40.822Z,20.77
2023-04-16T04:32:08.155Z,14.25
2023-04-16T04:34:36.093Z,17.30
2023-04-16T04:37:04.032Z,17.10
2023-04-16T04:39:31.749Z,15.20
2023-04-16T04:41:59.421Z,15.77
2023-04-16T04:44:26.235Z,15.75
2023-04-16T04:46:53.655Z,18.70
2023-04-16T04:49:20.920Z,19.23
2023-04-16T04:51:48.463Z,21.70
2023-04-16T04:54:15.786Z,21.77
2023-04-16T04:56:45.808Z,17.58
2023-04-16T04:59:14.251Z,20.65
2023-04-16T05:01:42.138Z,20.48
2023-04-16T05:04:09.560Z,19.00
2023-04-16T05:06:36.537Z,19.47
2023-04-16T05:09:03.945Z,21.98
2023-04-16T05:11:30.947Z,24.20
2023-04-16T05:13:58.165Z,25.17
2023-04-16T05:16:25.450Z,31.65
2023-04-16T05:18:52.690Z,29.20
2023-04-16T05:21:19.926Z,27.10
2023-04-16T05:23:46.924Z,22.05
2023-04-16T05:26:14.156Z,23.45
2023-04-16T05:28:41.508Z,27.60
2023-04-16T05:31:08.440Z,21.63
2023-04-16T05:33:35.755Z,19.65
2023-04-16T05:36:03.136Z,22.58
2023-04-16T05:38:30.435Z,23.88
2023-04-16T05:40:58.234Z,22.42
2023-04-16T05:43:25.681Z,22.90
2023-04-16T05:45:52.511Z,24.92
2023-04-16T05:48:20.260Z,32.22
2023-04-16T05:50:47.570Z,25.50
2023-04-16T05:53:14.889Z,18.80
2023-04-16T05:55:42.202Z,27.80
2023-04-16T05:58:09.010Z,30.27
2023-04-16T06:00:36.566Z,19.15
2023-04-16T06:03:04.284Z,24.90
2023-04-16T06:05:31.757Z,29.50
2023-04-16T06:07:59.206Z,23.17
2023-04-16T06:10:26.447Z,29.20
2023-04-16T06:12:53.865Z,29.45
2023-04-16T06:15:21.218Z,26.65
2023-04-16T06:17:48.520Z,29.55
2023-04-16T06:20:15.922Z,27.90
2023-04-16T06:22:43.162Z,20.27
2023-04-16T06:25:10.552Z,69.30
2023-04-16T06:27:37.854Z,31.70
2023-04-16T06:30:05.303Z,35.72
2023-04-16T06:32:32.811Z,31.03
2023-04-16T06:35:00.173Z,29.85
2023-04-16T06:37:27.447Z,28.33
2023-04-16T06:39:54.846Z,32.20
2023-04-16T06:42:21.725Z,27.77
2023-04-16T06:44:49.001Z,20.67
2023-04-16T06:47:16.648Z,29.38
2023-04-16T06:49:43.936Z,23.48
2023-04-16T06:52:12.004Z,27.80
2023-04-16T06:54:39.321Z,20.40
2023-04-16T06:57:06.541Z,25.47
2023-04-16T06:59:33.344Z,27.65
2023-04-16T07:02:00.336Z,27.13
2023-04-16T07:04:27.465Z,26.40
2023-04-16T07:06:54.722Z,30.98
2023-04-16T07:09:21.561Z,24.60
2023-04-16T07:11:49.038Z,20.10
2023-04-16T07:14:16.319Z,23.08
2023-04-16T07:16:43.758Z,24.25
2023-04-16T07:19:11.366Z,24.75
2023-04-16T07:21:38.813Z,20.47
2023-04-16T07:24:06.131Z,24.98
2023-04-16T07:26:33.384Z,25.08
2023-04-16T07:29:00.384Z,24.23
2023-04-16T07:31:27.564Z,26.77
2023-04-16T07:33:55.030Z,24.23
2023-04-16T07:36:21.912Z,30.33
2023-04-16T07:38:49.108Z,45.35
2023-04-16T07:41:17.269Z,77.00
2023-04-16T07:43:44.474Z,34.55
2023-04-16T07:46:11.800Z,34.53
2023-04-16T07:48:39.112Z,52.40
2023-04-16T07:51:06.506Z,40.00
2023-04-16T07:53:34.016Z,25.55
2023-04-16T07:56:01.313Z,22.60
2023-04-16T07:58:28.512Z,26.07
2023-04-16T08:00:55.919Z,40.88
2023-04-16T08:03:23.109Z,23.25
2023-04-16T08:05:50.722Z,23.05
2023-04-16T08:08:17.946Z,24.40
2023-04-16T08:10:45.399Z,19.37
2023-04-16T08:13:12.668Z,19.48
2023-04-16T08:15:40.039Z,15.07
2023-04-16T08:18:12.777Z,28.17
2023-04-16T08:20:40.131Z,24.05
2023-04-16T08:23:07.472Z,16.87
2023-04-16T08:25:34.718Z,16.30
2023-04-16T08:28:02.001Z,15.82
2023-04-16T08:30:29.234Z,16.77
2023-04-16T08:32:56.612Z,18.42
2023-04-16T08:35:23.987Z,14.63
2023-04-16T08:37:50.846Z,15.18
2023-04-16T08:40:18.347Z,15.23
2023-04-16T08:43:05.660Z,16.67
2023-04-16T08:45:35.039Z,19.00
2023-04-16T08:48:05.100Z,13.53
2023-04-16T08:50:34.570Z,14.40
2023-04-16T08:53:06.755Z,14.45
2023-04-16T08:55:39.225Z,12.07
2023-04-16T08:58:22.709Z,14.15
2023-04-16T09:00:50.223Z,15.90
2023-04-16T09:03:17.309Z,22.35
2023-04-16T09:05:44.882Z,32.53
2023-04-16T09:08:12.455Z,17.58
2023-04-16T09:10:40.158Z,15.38
2023-04-16T09:13:09.343Z,15.43
2023-04-16T09:15:36.686Z,14.93
2023-04-16T09:18:04.052Z,15.20
2023-04-16T09:20:31.338Z,12.70
2023-04-16T09:22:58.664Z,13.63
2023-04-16T09:25:26.460Z,11.80
2023-04-16T09:27:53.735Z,14.57
2023-04-16T09:30:25.598Z,13.02
2023-04-16T09:33:11.528Z,12.88
2023-04-16T09:35:51.935Z,12.82
2023-04-16T09:38:19.996Z,14.30
2023-04-16T09:40:47.670Z,11.73
2023-04-16T09:43:16.437Z,13.30
2023-04-16T09:45:54.174Z,14.07
2023-04-16T09:48:32.120Z,11.05
2023-04-16T09:51:00.356Z,15.10
2023-04-16T09:53:29.226Z,14.18
2023-04-16T09:56:05.385Z,14.57
2023-04-16T09:58:32.907Z,12.30
2023-04-16T10:01:05.884Z,11.88
2023-04-16T10:03:34.612Z,13.73
2023-04-16T10:06:18.130Z,15.90
2023-04-16T10:08:53.074Z,16.27
2023-04-16T10:11:21.201Z,14.25
2023-04-16T10:13:48.466Z,15.55
2023-04-16T10:16:16.008Z,12.17
2023-04-16T10:18:44.982Z,14.48
2023-04-16T10:21:12.941Z,12.63
2023-04-16T10:23:40.974Z,10.35
2023-04-16T10:26:08.406Z,19.27
2023-04-16T10:28:36.324Z,33.87
2023-04-16T10:31:09.210Z,26.40
2023-04-16T10:33:41.096Z,27.35
2023-04-16T10:36:13.791Z,17.95
2023-04-16T10:38:56.646Z,25.10
2023-04-16T10:41:23.628Z,15.60
2023-04-16T10:43:51.281Z,16.48
2023-04-16T10:46:18.881Z,16.40
2023-04-16T10:48:50.266Z,12.88
2023-04-16T10:51:27.764Z,15.70
2023-04-16T10:53:56.570Z,16.77
2023-04-16T10:56:31.432Z,15.80
2023-04-16T10:58:58.450Z,18.40
2023-04-16T11:01:45.307Z,15.35
2023-04-16T11:04:21.939Z,16.85
2023-04-16T11:07:19.394Z,18.33
2023-04-16T11:10:00.562Z,17.52
2023-04-16T11:12:32.735Z,14.57
2023-04-16T11:15:02.062Z,18.42
2023-04-16T11:17:51.679Z,16.23
2023-04-16T11:20:21.087Z,16.40
2023-04-16T11:22:49.486Z,17.25
2023-04-16T11:25:26.838Z,21.58
2023-04-16T11:27:54.962Z,13.80
2023-04-16T11:30:36.254Z,15.82
2023-04-16T11:33:11.444Z,23.17
2023-04-16T11:35:39.600Z,22.58
2023-04-16T11:38:07.331Z,17.65
2023-04-16T11:40:34.854Z,18.25
2023-04-16T11:43:19.970Z,21.05
2023-04-16T11:45:56.466Z,32.80
2023-04-16T11:48:23.766Z,21.65
2023-04-16T11:50:58.047Z,22.75
2023-04-16T11:53:25.694Z,22.27
2023-04-16T11:55:52.938Z,29.35
2023-04-16T11:58:22.310Z,25.37
2023-04-16T12:00:53.416Z,23.40
2023-04-16T12:03:38.557Z,19.92
2023-04-16T12:06:09.696Z,24.75
2023-04-16T12:08:36.966Z,19.30
2023-04-16T12:11:04.499Z,26.90
2023-04-16T12:13:39.660Z,22.63
2023-04-16T12:16:19.481Z,20.33
2023-04-16T12:19:00.134Z,31.20
2023-04-16T12:21:39.765Z,21.38
2023-04-16T12:24:08.313Z,24.20
2023-04-16T12:26:39.116Z,21.08
2023-04-16T12:29:35.138Z,16.42
2023-04-16T12:32:02.973Z,17.13
2023-04-16T12:34:48.153Z,17.90
2023-04-16T12:37:16.602Z,23.53
2023-04-16T12:39:43.993Z,19.52
2023-04-16T12:42:12.754Z,21.05
2023-04-16T12:44:40.041Z,22.17
2023-04-16T12:47:07.350Z,58.47
2023-04-16T12:49:34.729Z,21.90
2023-04-16T12:52:02.667Z,20.15
2023-04-16T12:54:31.235Z,19.45
2023-04-16T12:56:58.452Z,17.30
2023-04-16T12:59:25.267Z,18.17
2023-04-16T13:01:52.707Z,22.53
2023-04-16T13:04:21.544Z,43.70
2023-04-16T13:06:49.950Z,23.52
2023-04-16T13:09:18.058Z,24.73
2023-04-16T13:11:46.141Z,20.50
2023-04-16T13:14:13.464Z,23.47
2023-04-16T13:16:40.688Z,22.50
2023-04-16T13:19:07.958Z,19.40
2023-04-16T13:21:35.365Z,22.05
2023-04-16T13:24:02.599Z,22.77
2023-04-16T13:26:29.969Z,24.03
2023-04-16T13:28:57.246Z,20.58
2023-04-16T13:31:24.557Z,16.77
2023-04-16T13:33:51.555Z,20.10
2023-04-16T13:36:18.832Z,23.35
2023-04-16T13:38:46.240Z,21.00
2023-04-16T13:41:13.569Z,22.45
2023-04-16T13:43:40.351Z,19.92
2023-04-16T13:46:07.802Z,20.05
2023-04-16T13:48:34.748Z,20.92
2023-04-16T13:51:02.567Z,26.63
2023-04-16T13:53:29.802Z,25.23
2023-04-16T13:55:56.853Z,22.58
2023-04-16T13:58:23.893Z,19.15
2023-04-16T14:00:51.211Z,20.45
2023-04-16T14:03:18.533Z,24.60
2023-04-16T14:05:45.511Z,22.55
2023-04-16T14:08:14.771Z,23.00
2023-04-16T14:10:42.148Z,26.98
2023-04-16T14:13:09.388Z,66.40
2023-04-16T14:15:36.636Z,64.87
2023-04-16T14:18:04.193Z,24.77
2023-04-16T14:20:31.525Z,26.98
2023-04-16T14:22:58.567Z,22.85
2023-04-16T14:25:26.192Z,31.13
2023-04-16T14:27:53.309Z,26.57
2023-04-16T14:30:20.314Z,27.50
2023-04-16T14:32:47.599Z,31.13
2023-04-16T14:35:14.894Z,24.70
2023-04-16T14:37:42.526Z,34.42
2023-04-16T14:40:11.123Z,29.53
2023-04-16T14:42:39.427Z,24.95
2023-04-16T14:45:07.328Z,22.15
2023-04-16T14:47:34.886Z,20.80
2023-04-16T14:50:02.663Z,30.30
2023-04-16T14:52:31.940Z,20.00
2023-04-16T14:54:59.230Z,20.60
2023-04-16T14:57:26.779Z,30.15
2023-04-16T14:59:54.168Z,31.17
2023-04-16T15:02:22.122Z,69.22
2023-04-16T15:04:49.582Z,24.07
2023-04-16T15:07:16.531Z,28.75
2023-04-16T15:09:43.818Z,24.63
2023-04-16T15:12:10.787Z,27.65
2023-04-16T15:14:38.046Z,23.65
2023-04-16T15:17:05.644Z,24.83
2023-04-16T15:19:32.978Z,30.65
2023-04-16T15:21:59.825Z,24.63
2023-04-16T15:24:27.041Z,20.58
2023-04-16T15:26:54.233Z,25.15
2023-04-16T15:29:21.782Z,23.07
2023-04-16T15:31:48.639Z,24.73
2023-04-16T15:34:15.984Z,23.02
2023-04-16T15:36:43.281Z,21.02
2023-04-16T15:39:11.239Z,20.98
2023-04-16T15:41:50.259Z,19.37
2023-04-16T15:44:24.756Z,21.80
2023-04-16T15:46:52.084Z,22.05
2023-04-16T15:49:18.998Z,20.08
2023-04-16T15:51:46.258Z,20.65
2023-04-16T15:54:13.542Z,18.80
2023-04-16T15:56:40.626Z,16.92
2023-04-16T15:59:08.212Z,20.33
2023-04-16T16:01:35.887Z,19.92
2023-04-16T16:04:08.086Z,21.15
2023-04-16T16:06:37.905Z,23.67
2023-04-16T16:09:05.396Z,19.52
2023-04-16T16:11:32.812Z,21.88
2023-04-16T16:14:03.234Z,22.80
2023-04-16T16:16:30.732Z,26.60
2023-04-16T16:18:57.653Z,31.33
2023-04-16T16:21:24.902Z,22.67
2023-04-16T16:23:51.920Z,17.02
2023-04-16T16:26:20.576Z,23.13
2023-04-16T16:28:48.007Z,22.70
2023-04-16T16:31:15.299Z,27.37
2023-04-16T16:33:42.588Z,26.02
2023-04-16T16:36:12.579Z,27.98
2023-04-16T16:38:42.538Z,23.25
2023-04-16T16:41:09.866Z,17.80
2023-04-16T16:43:36.738Z,18.13
2023-04-16T16:46:05.792Z,21.65
2023-04-16T16:48:32.980Z,17.92
2023-04-16T16:51:00.604Z,20.17
2023-04-16T16:53:27.493Z,27.92
2023-04-16T16:55:54.321Z,32.93
2023-04-16T16:58:21.825Z,26.35
2023-04-16T17:00:49.216Z,23.65
2023-04-16T17:03:17.025Z,22.88
2023-04-16T17:05:43.973Z,28.25
2023-04-16T17:08:11.978Z,27.10
2023-04-16T17:10:39.177Z,23.75
2023-04-16T17:13:06.668Z,26.02
2023-04-16T17:15:33.981Z,26.67
2023-04-16T17:18:01.373Z,27.00
2023-04-16T17:20:28.440Z,22.80
2023-04-16T17:22:55.779Z,24.15
2023-04-16T17:25:23.176Z,27.23
2023-04-16T17:27:50.162Z,27.15
2023-04-16T17:30:17.401Z,27.13
2023-04-16T17:32:44.824Z,24.73
2023-04-16T17:35:13.755Z,21.63
2023-04-16T17:37:40.861Z,25.40
2023-04-16T17:40:08.191Z,23.77
2023-04-16T17:42:35.764Z,33.15
2023-04-16T17:45:03.288Z,29.17
2023-04-16T17:47:30.682Z,24.85
2023-04-16T17:49:58.040Z,26.60
2023-04-16T17:52:25.791Z,35.88
2023-04-16T17:54:56.499Z,30.67
2023-04-16T17:57:23.700Z,28.00
2023-04-16T17:59:51.006Z,23.20
2023-04-16T18:02:18.575Z,32.95
2023-04-16T18:04:46.692Z,26.02
2023-04-16T18:07:14.053Z,26.48
2023-04-16T18:09:41.627Z,24.07
2023-04-16T18:12:09.015Z,28.42
2023-04-16T18:14:37.147Z,34.40
2023-04-16T18:17:06.368Z,36.88
2023-04-16T18:19:35.499Z,30.42
2023-04-16T18:22:02.548Z,30.90
2023-04-16T18:24:29.837Z,29.42
2023-04-16T18:26:57.149Z,29.42
2023-04-16T18:29:25.468Z,30.33
2023-04-16T18:31:55.120Z,29.27
2023-04-16T18:34:23.476Z,26.40
2023-04-16T18:36:50.739Z,26.05
2023-04-16T18:39:18.105Z,30.42
2023-04-16T18:41:47.726Z,27.98
2023-04-16T18:44:16.091Z,38.83
2023-04-16T18:46:43.464Z,26.80
2023-04-16T18:49:11.024Z,31.52
2023-04-16T18:51:38.448Z,29.42
2023-04-16T18:54:05.807Z,30.23
2023-04-16T18:56:33.155Z,31.17
2023-04-16T18:59:00.449Z,23.40
2023-04-16T19:01:27.746Z,32.42
2023-04-16T19:03:56.043Z,28.67
2023-04-16T19:06:22.906Z,27.73
2023-04-16T19:08:50.445Z,29.48
2023-04-16T19:11:17.814Z,33.37
2023-04-16T19:13:44.820Z,29.42
2023-04-16T19:16:12.291Z,38.60
2023-04-16T19:18:39.476Z,29.75
2023-04-16T19:21:07.354Z,32.95
2023-04-16T19:23:34.720Z,34.17
2023-04-16T19:26:01.751Z,33.25
2023-04-16T19:28:29.163Z,33.53
2023-04-16T19:30:56.437Z,31.52
2023-04-16T19:33:23.673Z,34.35
2023-04-16T19:35:50.927Z,36.20
2023-04-16T19:38:17.799Z,29.90
2023-04-16T19:40:46.627Z,28.60
2023-04-16T19:43:14.156Z,31.50
2023-04-16T19:45:52.182Z,29.10
2023-04-16T19:48:20.022Z,31.80
2023-04-16T19:50:47.350Z,31.90
2023-04-16T19:53:15.805Z,30.80
2023-04-16T19:55:43.038Z,29.33
2023-04-16T19:58:10.595Z,31.95
2023-04-16T20:00:40.788Z,29.90
2023-04-16T20:03:08.252Z,36.70
2023-04-16T20:05:35.991Z,28.90
2023-04-16T20:08:03.687Z,31.42
2023-04-16T20:10:31.631Z,35.15
2023-04-16T20:12:59.256Z,34.23
2023-04-16T20:15:26.300Z,33.22
2023-04-16T20:17:53.458Z,31.42
2023-04-16T20:20:22.698Z,35.10
2023-04-16T20:22:50.557Z,39.58
2023-04-16T20:25:21.725Z,34.73
2023-04-16T20:27:49.143Z,36.38
2023-04-16T20:30:16.738Z,33.13
2023-04-16T20:32:44.200Z,35.13
2023-04-16T20:35:11.744Z,35.67
2023-04-16T20:37:42.202Z,39.50
2023-04-16T20:40:09.627Z,34.33
2023-04-16T20:42:36.905Z,32.00
2023-04-16T20:45:04.911Z,33.75
2023-04-16T20:47:34.497Z,37.03
2023-04-16T20:50:02.732Z,33.77
2023-04-16T20:52:30.702Z,39.33
2023-04-16T20:54:57.878Z,38.08
2023-04-16T20:57:28.158Z,37.25
2023-04-16T20:59:55.505Z,29.95
2023-04-16T21:02:24.207Z,40.10
2023-04-16T21:04:51.921Z,36.05
2023-04-16T21:07:18.791Z,37.20
2023-04-16T21:09:46.397Z,37.88
2023-04-16T21:12:13.651Z,33.50
2023-04-16T21:14:41.075Z,38.10
2023-04-16T21:17:07.894Z,35.85
2023-04-16T21:19:35.115Z,39.33
2023-04-16T21:22:02.905Z,33.50
2023-04-16T21:24:30.300Z,36.63
2023-04-16T21:26:57.297Z,34.37
2023-04-16T21:29:24.158Z,36.05
2023-04-16T21:31:51.624Z,40.10
2023-04-16T21:34:19.412Z,39.35
2023-04-16T21:36:46.666Z,43.25
2023-04-16T21:39:14.964Z,39.07
2023-04-16T21:41:42.208Z,38.25
2023-04-16T21:44:09.075Z,37.72
2023-04-16T21:46:36.133Z,35.13
2023-04-16T21:49:03.804Z,32.72
2023-04-16T21:51:30.626Z,37.87
2023-04-16T21:53:57.880Z,35.55
2023-04-16T21:56:25.825Z,34.30
2023-04-16T21:58:52.704Z,36.42
2023-04-16T22:01:20.019Z,42.03
2023-04-16T22:03:50.581Z,36.70
2023-04-16T22:06:18.358Z,36.42
2023-04-16T22:08:45.589Z,43.63
2023-04-16T22:11:12.619Z,43.05
2023-04-16T22:13:42.347Z,45.70
2023-04-16T22:16:11.497Z,37.20
2023-04-16T22:18:41.079Z,46.10
2023-04-16T22:21:07.925Z,42.53
2023-04-16T22:23:35.325Z,39.88
2023-04-16T22:26:02.624Z,41.33
2023-04-16T22:28:29.876Z,35.30
2023-04-16T22:30:57.315Z,43.00
2023-04-16T22:33:24.759Z,36.45
2023-04-16T22:35:51.813Z,41.40
2023-04-16T22:38:19.057Z,38.10
2023-04-16T22:40:48.791Z,38.83
2023-04-16T22:43:17.605Z,36.35
2023-04-16T22:45:46.284Z,36.38
2023-04-16T22:48:13.909Z,39.53
2023-04-16T22:50:46.091Z,43.03
2023-04-16T22:53:13.300Z,36.20
2023-04-16T22:55:40.956Z,33.95
2023-04-16T22:58:08.176Z,36.97
2023-04-16T23:00:35.512Z,34.85
2023-04-16T23:03:02.936Z,36.55
2023-04-16T23:05:29.879Z,34.43
2023-04-16T23:07:57.077Z,38.25
2023-04-16T23:10:24.381Z,38.60
2023-04-16T23:12:51.736Z,33.10
2023-04-16T23:15:19.064Z,35.80
2023-04-16T23:17:46.685Z,36.53
2023-04-16T23:20:14.676Z,37.88
2023-04-16T23:22:42.064Z,44.65
2023-04-16T23:25:09.597Z,40.90
2023-04-16T23:27:37.268Z,41.22
2023-04-16T23:30:05.312Z,39.10
2023-04-16T23:32:33.992Z,45.03
2023-04-16T23:35:01.527Z,41.47
2023-04-16T23:37:28.865Z,45.10
2023-04-16T23:39:56.134Z,45.15
2023-04-16T23:42:23.386Z,38.87
2023-04-16T23:44:50.710Z,42.85
2023-04-16T23:47:18.193Z,40.58
2023-04-16T23:49:45.702Z,39.75
2023-04-16T23:52:12.568Z,39.97
2023-04-16T23:54:39.775Z,39.33
2023-04-16T23:57:07.142Z,36.72
2023-04-16T23:59:34.393Z,41.92
